Terminal Aerodrome Forecast
Issued by NWS

Home | Current Version | Previous Version | Text Only | Print | Product List | Glossary On
Versions: 1 2 3 4 5 6 7 8 9 10 11 12 13 14 15 16
768
FTPA31 PHFO 242106 AAC
TAFSTU
TAF AMD
NSTU 242106Z 2421/2518 13012KT P6SM VCSH FEW020 BKN040 OVC100=

USA.gov is the U.S. government's official web portal to all federal, state and local government web resources and services.